sensor_id;sensor_type;location;lat;lon;timestamp;P1;durP1;ratioP1;P2;durP2;ratioP2
4389;SDS011;2209;48.982;8.406;2023-04-03T00:01:02;2.50;;;1.63;;
4389;SDS011;2209;48.982;8.406;2023-04-03T00:03:25;2.23;;;1.80;;
4389;SDS011;2209;48.982;8.406;2023-04-03T00:05:48;2.30;;;1.97;;
4389;SDS011;2209;48.982;8.406;2023-04-03T00:08:10;3.47;;;2.00;;
4389;SDS011;2209;48.982;8.406;2023-04-03T00:10:32;2.07;;;1.93;;
4389;SDS011;2209;48.982;8.406;2023-04-03T00:12:55;2.00;;;1.87;;
4389;SDS011;2209;48.982;8.406;2023-04-03T00:15:17;2.00;;;1.90;;
4389;SDS011;2209;48.982;8.406;2023-04-03T00:17:40;2.83;;;1.40;;
4389;SDS011;2209;48.982;8.406;2023-04-03T00:20:02;2.37;;;2.17;;
4389;SDS011;2209;48.982;8.406;2023-04-03T00:22:26;2.13;;;1.70;;
4389;SDS011;2209;48.982;8.406;2023-04-03T00:24:49;2.10;;;1.90;;
4389;SDS011;2209;48.982;8.406;2023-04-03T00:27:11;2.40;;;1.77;;
4389;SDS011;2209;48.982;8.406;2023-04-03T00:29:33;2.10;;;1.90;;
4389;SDS011;2209;48.982;8.406;2023-04-03T00:31:55;1.73;;;1.63;;
4389;SDS011;2209;48.982;8.406;2023-04-03T00:34:17;1.63;;;1.50;;
4389;SDS011;2209;48.982;8.406;2023-04-03T00:36:40;1.70;;;1.60;;
4389;SDS011;2209;48.982;8.406;2023-04-03T00:39:03;4.57;;;1.80;;
4389;SDS011;2209;48.982;8.406;2023-04-03T00:41:26;1.97;;;1.77;;
4389;SDS011;2209;48.982;8.406;2023-04-03T00:43:48;1.90;;;1.80;;
4389;SDS011;2209;48.982;8.406;2023-04-03T00:46:10;1.70;;;1.60;;
4389;SDS011;2209;48.982;8.406;2023-04-03T00:48:33;2.73;;;1.97;;
4389;SDS011;2209;48.982;8.406;2023-04-03T00:50:59;1.83;;;1.73;;
4389;SDS011;2209;48.982;8.406;2023-04-03T00:53:22;2.27;;;1.90;;
4389;SDS011;2209;48.982;8.406;2023-04-03T00:55:48;1.70;;;1.60;;
4389;SDS011;2209;48.982;8.406;2023-04-03T00:58:12;2.37;;;2.00;;
4389;SDS011;2209;48.982;8.406;2023-04-03T01:00:36;5.70;;;1.87;;
4389;SDS011;2209;48.982;8.406;2023-04-03T01:03:01;3.83;;;1.97;;
4389;SDS011;2209;48.982;8.406;2023-04-03T01:05:23;3.67;;;1.77;;
4389;SDS011;2209;48.982;8.406;2023-04-03T01:07:46;2.03;;;1.50;;
4389;SDS011;2209;48.982;8.406;2023-04-03T01:10:09;2.70;;;1.80;;
4389;SDS011;2209;48.982;8.406;2023-04-03T01:12:36;2.20;;;1.73;;
4389;SDS011;2209;48.982;8.406;2023-04-03T01:15:00;3.70;;;1.87;;
4389;SDS011;2209;48.982;8.406;2023-04-03T01:17:26;2.20;;;2.10;;
4389;SDS011;2209;48.982;8.406;2023-04-03T01:19:51;2.00;;;1.57;;
4389;SDS011;2209;48.982;8.406;2023-04-03T01:22:30;1.80;;;1.70;;
4389;SDS011;2209;48.982;8.406;2023-04-03T01:25:00;2.10;;;1.90;;
4389;SDS011;2209;48.982;8.406;2023-04-03T01:27:23;1.90;;;1.70;;
4389;SDS011;2209;48.982;8.406;2023-04-03T01:29:46;1.77;;;1.67;;
4389;SDS011;2209;48.982;8.406;2023-04-03T01:32:10;2.50;;;2.13;;
4389;SDS011;2209;48.982;8.406;2023-04-03T01:34:32;1.67;;;1.57;;
4389;SDS011;2209;48.982;8.406;2023-04-03T01:36:54;3.53;;;1.80;;
4389;SDS011;2209;48.982;8.406;2023-04-03T01:39:16;1.87;;;1.53;;
4389;SDS011;2209;48.982;8.406;2023-04-03T01:41:39;1.93;;;1.83;;
4389;SDS011;2209;48.982;8.406;2023-04-03T01:44:01;2.40;;;2.20;;
4389;SDS011;2209;48.982;8.406;2023-04-03T01:46:24;2.10;;;1.90;;
4389;SDS011;2209;48.982;8.406;2023-04-03T01:48:47;3.50;;;1.73;;
4389;SDS011;2209;48.982;8.406;2023-04-03T01:51:10;2.80;;;1.97;;
4389;SDS011;2209;48.982;8.406;2023-04-03T01:53:32;2.07;;;1.97;;
4389;SDS011;2209;48.982;8.406;2023-04-03T01:55:54;1.80;;;1.70;;
4389;SDS011;2209;48.982;8.406;2023-04-03T01:58:16;1.70;;;1.60;;
4389;SDS011;2209;48.982;8.406;2023-04-03T02:00:38;2.60;;;2.10;;
4389;SDS011;2209;48.982;8.406;2023-04-03T02:03:00;3.37;;;2.20;;
4389;SDS011;2209;48.982;8.406;2023-04-03T02:05:24;3.20;;;1.83;;
4389;SDS011;2209;48.982;8.406;2023-04-03T02:07:46;2.03;;;1.77;;
4389;SDS011;2209;48.982;8.406;2023-04-03T02:10:08;2.20;;;1.83;;
4389;SDS011;2209;48.982;8.406;2023-04-03T02:12:31;2.00;;;1.90;;
4389;SDS011;2209;48.982;8.406;2023-04-03T02:14:53;2.70;;;2.10;;
4389;SDS011;2209;48.982;8.406;2023-04-03T02:17:15;2.30;;;2.10;;
4389;SDS011;2209;48.982;8.406;2023-04-03T02:19:37;2.20;;;2.10;;
4389;SDS011;2209;48.982;8.406;2023-04-03T02:22:01;3.10;;;2.07;;
4389;SDS011;2209;48.982;8.406;2023-04-03T02:24:23;3.30;;;2.30;;
4389;SDS011;2209;48.982;8.406;2023-04-03T02:26:45;2.20;;;2.10;;
4389;SDS011;2209;48.982;8.406;2023-04-03T02:29:07;2.80;;;1.77;;
4389;SDS011;2209;48.982;8.406;2023-04-03T02:31:29;4.57;;;2.60;;
4389;SDS011;2209;48.982;8.406;2023-04-03T02:33:51;6.17;;;2.10;;
4389;SDS011;2209;48.982;8.406;2023-04-03T02:36:13;3.07;;;2.30;;
4389;SDS011;2209;48.982;8.406;2023-04-03T02:38:36;4.17;;;2.23;;
4389;SDS011;2209;48.982;8.406;2023-04-03T02:40:59;2.20;;;2.10;;
4389;SDS011;2209;48.982;8.406;2023-04-03T02:43:22;2.70;;;2.37;;
4389;SDS011;2209;48.982;8.406;2023-04-03T02:45:44;1.93;;;1.83;;
4389;SDS011;2209;48.982;8.406;2023-04-03T02:48:06;3.30;;;2.10;;
4389;SDS011;2209;48.982;8.406;2023-04-03T02:50:28;2.80;;;2.57;;
4389;SDS011;2209;48.982;8.406;2023-04-03T02:52:50;2.33;;;1.77;;
4389;SDS011;2209;48.982;8.406;2023-04-03T02:55:14;2.80;;;2.03;;
4389;SDS011;2209;48.982;8.406;2023-04-03T02:57:36;2.37;;;2.17;;
4389;SDS011;2209;48.982;8.406;2023-04-03T02:59:58;2.20;;;2.00;;
4389;SDS011;2209;48.982;8.406;2023-04-03T03:02:20;4.53;;;2.40;;
4389;SDS011;2209;48.982;8.406;2023-04-03T03:04:42;2.57;;;2.37;;
4389;SDS011;2209;48.982;8.406;2023-04-03T03:07:05;2.73;;;2.60;;
4389;SDS011;2209;48.982;8.406;2023-04-03T03:09:27;2.07;;;1.80;;
4389;SDS011;2209;48.982;8.406;2023-04-03T03:11:51;3.00;;;2.30;;
4389;SDS011;2209;48.982;8.406;2023-04-03T03:14:13;2.73;;;2.47;;
4389;SDS011;2209;48.982;8.406;2023-04-03T03:16:35;3.50;;;2.67;;
4389;SDS011;2209;48.982;8.406;2023-04-03T03:18:57;3.30;;;2.30;;
4389;SDS011;2209;48.982;8.406;2023-04-03T03:21:19;3.13;;;2.67;;
4389;SDS011;2209;48.982;8.406;2023-04-03T03:23:41;2.73;;;2.33;;
4389;SDS011;2209;48.982;8.406;2023-04-03T03:26:04;2.93;;;2.50;;
4389;SDS011;2209;48.982;8.406;2023-04-03T03:28:29;2.70;;;2.50;;
4389;SDS011;2209;48.982;8.406;2023-04-03T03:30:51;3.23;;;2.10;;
4389;SDS011;2209;48.982;8.406;2023-04-03T03:33:13;2.30;;;2.10;;
4389;SDS011;2209;48.982;8.406;2023-04-03T03:35:36;3.20;;;2.47;;
4389;SDS011;2209;48.982;8.406;2023-04-03T03:37:58;2.10;;;2.00;;
4389;SDS011;2209;48.982;8.406;2023-04-03T03:40:20;3.03;;;2.40;;
4389;SDS011;2209;48.982;8.406;2023-04-03T03:42:42;2.70;;;2.50;;
4389;SDS011;2209;48.982;8.406;2023-04-03T03:45:06;2.70;;;2.27;;
4389;SDS011;2209;48.982;8.406;2023-04-03T03:47:29;3.50;;;2.50;;
4389;SDS011;2209;48.982;8.406;2023-04-03T03:49:51;2.33;;;1.90;;
4389;SDS011;2209;48.982;8.406;2023-04-03T03:52:13;1.87;;;1.77;;
4389;SDS011;2209;48.982;8.406;2023-04-03T03:54:35;2.60;;;2.40;;
4389;SDS011;2209;48.982;8.406;2023-04-03T03:56:57;2.80;;;2.30;;
4389;SDS011;2209;48.982;8.406;2023-04-03T03:59:19;2.77;;;2.57;;
4389;SDS011;2209;48.982;8.406;2023-04-03T04:01:43;2.47;;;2.37;;
4389;SDS011;2209;48.982;8.406;2023-04-03T04:04:05;2.57;;;2.10;;
4389;SDS011;2209;48.982;8.406;2023-04-03T04:06:27;4.20;;;2.07;;
4389;SDS011;2209;48.982;8.406;2023-04-03T04:08:49;2.60;;;2.00;;
4389;SDS011;2209;48.982;8.406;2023-04-03T04:11:11;2.40;;;2.30;;
4389;SDS011;2209;48.982;8.406;2023-04-03T04:13:33;2.23;;;2.13;;
4389;SDS011;2209;48.982;8.406;2023-04-03T04:15:55;2.00;;;1.90;;
4389;SDS011;2209;48.982;8.406;2023-04-03T04:18:19;2.30;;;2.10;;
4389;SDS011;2209;48.982;8.406;2023-04-03T04:20:44;3.20;;;2.57;;
4389;SDS011;2209;48.982;8.406;2023-04-03T04:23:06;4.60;;;2.40;;
4389;SDS011;2209;48.982;8.406;2023-04-03T04:25:28;4.13;;;2.60;;
4389;SDS011;2209;48.982;8.406;2023-04-03T04:27:50;2.70;;;2.50;;
4389;SDS011;2209;48.982;8.406;2023-04-03T04:30:12;1.90;;;1.80;;
4389;SDS011;2209;48.982;8.406;2023-04-03T04:32:35;2.90;;;2.57;;
4389;SDS011;2209;48.982;8.406;2023-04-03T04:34:58;4.17;;;2.57;;
4389;SDS011;2209;48.982;8.406;2023-04-03T04:37:20;2.40;;;2.30;;
4389;SDS011;2209;48.982;8.406;2023-04-03T04:39:42;2.27;;;2.07;;
4389;SDS011;2209;48.982;8.406;2023-04-03T04:42:05;2.63;;;2.30;;
4389;SDS011;2209;48.982;8.406;2023-04-03T04:44:28;2.90;;;2.60;;
4389;SDS011;2209;48.982;8.406;2023-04-03T04:46:50;2.43;;;2.23;;
4389;SDS011;2209;48.982;8.406;2023-04-03T04:49:12;2.73;;;2.53;;
4389;SDS011;2209;48.982;8.406;2023-04-03T04:51:36;3.50;;;2.60;;
4389;SDS011;2209;48.982;8.406;2023-04-03T04:53:58;3.13;;;2.30;;
4389;SDS011;2209;48.982;8.406;2023-04-03T04:56:20;2.30;;;2.10;;
4389;SDS011;2209;48.982;8.406;2023-04-03T04:58:42;2.20;;;2.03;;
4389;SDS011;2209;48.982;8.406;2023-04-03T05:01:05;4.43;;;2.30;;
4389;SDS011;2209;48.982;8.406;2023-04-03T05:03:29;2.70;;;2.50;;
4389;SDS011;2209;48.982;8.406;2023-04-03T05:05:51;2.67;;;2.47;;
4389;SDS011;2209;48.982;8.406;2023-04-03T05:08:14;2.97;;;2.67;;
4389;SDS011;2209;48.982;8.406;2023-04-03T05:10:37;2.73;;;2.30;;
4389;SDS011;2209;48.982;8.406;2023-04-03T05:13:01;3.33;;;2.57;;
4389;SDS011;2209;48.982;8.406;2023-04-03T05:15:23;2.90;;;2.70;;
4389;SDS011;2209;48.982;8.406;2023-04-03T05:17:45;2.50;;;2.30;;
4389;SDS011;2209;48.982;8.406;2023-04-03T05:20:07;2.97;;;2.77;;
4389;SDS011;2209;48.982;8.406;2023-04-03T05:22:30;2.30;;;2.10;;
4389;SDS011;2209;48.982;8.406;2023-04-03T05:24:54;2.47;;;2.30;;
4389;SDS011;2209;48.982;8.406;2023-04-03T05:27:16;3.90;;;2.87;;
4389;SDS011;2209;48.982;8.406;2023-04-03T05:29:43;2.77;;;2.37;;
4389;SDS011;2209;48.982;8.406;2023-04-03T05:32:08;3.07;;;2.20;;
4389;SDS011;2209;48.982;8.406;2023-04-03T05:34:31;3.57;;;2.60;;
4389;SDS011;2209;48.982;8.406;2023-04-03T05:36:53;2.53;;;2.40;;
4389;SDS011;2209;48.982;8.406;2023-04-03T05:39:15;3.60;;;3.00;;
4389;SDS011;2209;48.982;8.406;2023-04-03T05:41:38;2.93;;;2.50;;
4389;SDS011;2209;48.982;8.406;2023-04-03T05:44:00;2.77;;;2.20;;
4389;SDS011;2209;48.982;8.406;2023-04-03T05:46:22;4.87;;;2.93;;
4389;SDS011;2209;48.982;8.406;2023-04-03T05:48:44;3.13;;;2.83;;
4389;SDS011;2209;48.982;8.406;2023-04-03T05:51:07;5.50;;;2.13;;
4389;SDS011;2209;48.982;8.406;2023-04-03T05:53:35;2.93;;;2.57;;
4389;SDS011;2209;48.982;8.406;2023-04-03T05:55:58;2.47;;;2.27;;
4389;SDS011;2209;48.982;8.406;2023-04-03T05:58:21;2.97;;;2.30;;
4389;SDS011;2209;48.982;8.406;2023-04-03T06:00:43;3.80;;;2.73;;
4389;SDS011;2209;48.982;8.406;2023-04-03T06:03:05;2.90;;;2.40;;
4389;SDS011;2209;48.982;8.406;2023-04-03T06:05:27;3.40;;;2.63;;
4389;SDS011;2209;48.982;8.406;2023-04-03T06:07:50;3.97;;;2.70;;
4389;SDS011;2209;48.982;8.406;2023-04-03T06:10:12;2.53;;;2.33;;
4389;SDS011;2209;48.982;8.406;2023-04-03T06:12:34;2.30;;;2.20;;
4389;SDS011;2209;48.982;8.406;2023-04-03T06:14:58;3.90;;;2.90;;
4389;SDS011;2209;48.982;8.406;2023-04-03T06:17:20;3.43;;;2.83;;
4389;SDS011;2209;48.982;8.406;2023-04-03T06:19:42;2.60;;;2.30;;
4389;SDS011;2209;48.982;8.406;2023-04-03T06:22:05;2.23;;;2.03;;
4389;SDS011;2209;48.982;8.406;2023-04-03T06:24:27;2.87;;;2.30;;
4389;SDS011;2209;48.982;8.406;2023-04-03T06:26:49;4.00;;;2.87;;
4389;SDS011;2209;48.982;8.406;2023-04-03T06:29:12;2.63;;;2.43;;
4389;SDS011;2209;48.982;8.406;2023-04-03T06:31:36;2.50;;;2.30;;
4389;SDS011;2209;48.982;8.406;2023-04-03T06:33:58;3.17;;;2.77;;
4389;SDS011;2209;48.982;8.406;2023-04-03T06:36:20;3.50;;;2.83;;
4389;SDS011;2209;48.982;8.406;2023-04-03T06:38:42;3.43;;;2.60;;
4389;SDS011;2209;48.982;8.406;2023-04-03T06:41:04;2.50;;;2.10;;
4389;SDS011;2209;48.982;8.406;2023-04-03T06:43:27;2.87;;;2.60;;
4389;SDS011;2209;48.982;8.406;2023-04-03T06:45:51;3.07;;;2.27;;
4389;SDS011;2209;48.982;8.406;2023-04-03T06:48:15;3.20;;;2.47;;
4389;SDS011;2209;48.982;8.406;2023-04-03T06:50:37;2.80;;;2.60;;
4389;SDS011;2209;48.982;8.406;2023-04-03T06:52:59;3.23;;;2.60;;
4389;SDS011;2209;48.982;8.406;2023-04-03T06:55:21;5.17;;;2.73;;
4389;SDS011;2209;48.982;8.406;2023-04-03T06:57:43;3.67;;;2.20;;
4389;SDS011;2209;48.982;8.406;2023-04-03T07:00:06;2.70;;;2.50;;
4389;SDS011;2209;48.982;8.406;2023-04-03T07:02:29;3.47;;;2.63;;
4389;SDS011;2209;48.982;8.406;2023-04-03T07:04:52;2.63;;;2.00;;
4389;SDS011;2209;48.982;8.406;2023-04-03T07:07:15;3.00;;;2.37;;
4389;SDS011;2209;48.982;8.406;2023-04-03T07:09:37;5.77;;;3.37;;
4389;SDS011;2209;48.982;8.406;2023-04-03T07:11:59;4.07;;;3.47;;
4389;SDS011;2209;48.982;8.406;2023-04-03T07:14:21;2.90;;;2.70;;
4389;SDS011;2209;48.982;8.406;2023-04-03T07:16:43;3.87;;;3.20;;
4389;SDS011;2209;48.982;8.406;2023-04-03T07:19:05;4.90;;;2.77;;
4389;SDS011;2209;48.982;8.406;2023-04-03T07:21:30;3.97;;;2.97;;
4389;SDS011;2209;48.982;8.406;2023-04-03T07:23:52;4.20;;;3.53;;
4389;SDS011;2209;48.982;8.406;2023-04-03T07:26:14;3.67;;;3.17;;
4389;SDS011;2209;48.982;8.406;2023-04-03T07:28:36;2.90;;;2.60;;
4389;SDS011;2209;48.982;8.406;2023-04-03T07:31:01;3.20;;;3.00;;
4389;SDS011;2209;48.982;8.406;2023-04-03T07:33:25;3.70;;;3.00;;
4389;SDS011;2209;48.982;8.406;2023-04-03T07:35:47;3.47;;;3.03;;
4389;SDS011;2209;48.982;8.406;2023-04-03T07:38:11;4.83;;;3.10;;
4389;SDS011;2209;48.982;8.406;2023-04-03T07:40:34;3.80;;;3.53;;
4389;SDS011;2209;48.982;8.406;2023-04-03T07:42:56;3.27;;;3.03;;
4389;SDS011;2209;48.982;8.406;2023-04-03T07:45:18;3.13;;;2.80;;
4389;SDS011;2209;48.982;8.406;2023-04-03T07:47:40;4.50;;;4.10;;
4389;SDS011;2209;48.982;8.406;2023-04-03T07:50:03;6.90;;;3.40;;
4389;SDS011;2209;48.982;8.406;2023-04-03T07:52:25;2.97;;;2.63;;
4389;SDS011;2209;48.982;8.406;2023-04-03T07:54:48;2.87;;;2.60;;
4389;SDS011;2209;48.982;8.406;2023-04-03T07:57:10;5.27;;;3.40;;
4389;SDS011;2209;48.982;8.406;2023-04-03T07:59:33;3.40;;;3.20;;
4389;SDS011;2209;48.982;8.406;2023-04-03T08:01:55;3.67;;;3.27;;
4389;SDS011;2209;48.982;8.406;2023-04-03T08:04:17;5.50;;;3.20;;
4389;SDS011;2209;48.982;8.406;2023-04-03T08:06:39;4.10;;;3.27;;
4389;SDS011;2209;48.982;8.406;2023-04-03T08:09:01;4.97;;;3.13;;
4389;SDS011;2209;48.982;8.406;2023-04-03T08:11:25;3.90;;;3.30;;
4389;SDS011;2209;48.982;8.406;2023-04-03T08:13:47;4.67;;;3.07;;
4389;SDS011;2209;48.982;8.406;2023-04-03T08:16:10;3.00;;;2.70;;
4389;SDS011;2209;48.982;8.406;2023-04-03T08:18:33;2.70;;;2.50;;
4389;SDS011;2209;48.982;8.406;2023-04-03T08:20:56;3.47;;;3.13;;
4389;SDS011;2209;48.982;8.406;2023-04-03T08:23:18;3.60;;;3.30;;
4389;SDS011;2209;48.982;8.406;2023-04-03T08:25:40;6.53;;;3.03;;
4389;SDS011;2209;48.982;8.406;2023-04-03T08:28:04;3.90;;;3.50;;
4389;SDS011;2209;48.982;8.406;2023-04-03T08:30:26;3.97;;;3.57;;
4389;SDS011;2209;48.982;8.406;2023-04-03T08:32:49;2.97;;;2.77;;
4389;SDS011;2209;48.982;8.406;2023-04-03T08:35:11;4.43;;;3.07;;
4389;SDS011;2209;48.982;8.406;2023-04-03T08:37:34;3.60;;;2.60;;
4389;SDS011;2209;48.982;8.406;2023-04-03T08:39:57;3.20;;;3.00;;
4389;SDS011;2209;48.982;8.406;2023-04-03T08:42:22;3.00;;;2.70;;
4389;SDS011;2209;48.982;8.406;2023-04-03T08:44:59;3.53;;;2.90;;
4389;SDS011;2209;48.982;8.406;2023-04-03T08:47:28;4.03;;;3.17;;
4389;SDS011;2209;48.982;8.406;2023-04-03T08:49:55;3.73;;;2.67;;
4389;SDS011;2209;48.982;8.406;2023-04-03T08:52:22;3.20;;;2.90;;
4389;SDS011;2209;48.982;8.406;2023-04-03T08:54:52;2.40;;;2.30;;
4389;SDS011;2209;48.982;8.406;2023-04-03T08:57:17;3.20;;;2.80;;
4389;SDS011;2209;48.982;8.406;2023-04-03T08:59:44;4.87;;;3.00;;
4389;SDS011;2209;48.982;8.406;2023-04-03T09:02:16;6.30;;;3.50;;
4389;SDS011;2209;48.982;8.406;2023-04-03T09:04:45;4.00;;;2.90;;
4389;SDS011;2209;48.982;8.406;2023-04-03T09:07:08;3.37;;;2.80;;
4389;SDS011;2209;48.982;8.406;2023-04-03T09:09:38;3.00;;;2.80;;
4389;SDS011;2209;48.982;8.406;2023-04-03T09:12:04;2.70;;;2.50;;
4389;SDS011;2209;48.982;8.406;2023-04-03T09:14:36;4.27;;;3.20;;
4389;SDS011;2209;48.982;8.406;2023-04-03T09:17:02;2.90;;;2.70;;
4389;SDS011;2209;48.982;8.406;2023-04-03T09:19:35;4.90;;;3.00;;
4389;SDS011;2209;48.982;8.406;2023-04-03T09:22:09;5.00;;;2.83;;
4389;SDS011;2209;48.982;8.406;2023-04-03T09:24:37;3.57;;;2.77;;
4389;SDS011;2209;48.982;8.406;2023-04-03T09:27:00;3.70;;;3.20;;
4389;SDS011;2209;48.982;8.406;2023-04-03T09:29:26;4.43;;;2.83;;
4389;SDS011;2209;48.982;8.406;2023-04-03T09:31:48;2.80;;;2.60;;
4389;SDS011;2209;48.982;8.406;2023-04-03T09:34:15;2.60;;;2.03;;
4389;SDS011;2209;48.982;8.406;2023-04-03T09:36:45;6.63;;;2.80;;
4389;SDS011;2209;48.982;8.406;2023-04-03T09:39:10;4.77;;;2.60;;
4389;SDS011;2209;48.982;8.406;2023-04-03T09:41:34;2.50;;;2.30;;
4389;SDS011;2209;48.982;8.406;2023-04-03T09:43:57;2.47;;;2.20;;
4389;SDS011;2209;48.982;8.406;2023-04-03T09:46:24;4.70;;;2.47;;
4389;SDS011;2209;48.982;8.406;2023-04-03T09:48:51;3.03;;;2.50;;
4389;SDS011;2209;48.982;8.406;2023-04-03T09:51:16;2.17;;;1.97;;
4389;SDS011;2209;48.982;8.406;2023-04-03T09:53:40;2.60;;;2.40;;
4389;SDS011;2209;48.982;8.406;2023-04-03T09:56:04;3.00;;;2.30;;
4389;SDS011;2209;48.982;8.406;2023-04-03T09:58:42;5.83;;;2.30;;
4389;SDS011;2209;48.982;8.406;2023-04-03T10:01:06;4.20;;;2.10;;
4389;SDS011;2209;48.982;8.406;2023-04-03T10:03:41;2.33;;;2.10;;
4389;SDS011;2209;48.982;8.406;2023-04-03T10:06:14;2.27;;;2.07;;
4389;SDS011;2209;48.982;8.406;2023-04-03T10:08:46;2.93;;;2.50;;
4389;SDS011;2209;48.982;8.406;2023-04-03T10:11:21;2.30;;;2.10;;
4389;SDS011;2209;48.982;8.406;2023-04-03T10:13:51;3.00;;;2.77;;
4389;SDS011;2209;48.982;8.406;2023-04-03T10:16:16;3.83;;;2.20;;
4389;SDS011;2209;48.982;8.406;2023-04-03T10:18:41;4.30;;;1.93;;
4389;SDS011;2209;48.982;8.406;2023-04-03T10:21:08;2.87;;;1.87;;
4389;SDS011;2209;48.982;8.406;2023-04-03T10:23:38;2.40;;;1.80;;
4389;SDS011;2209;48.982;8.406;2023-04-03T10:26:07;2.70;;;2.07;;
4389;SDS011;2209;48.982;8.406;2023-04-03T10:28:39;2.43;;;2.20;;
4389;SDS011;2209;48.982;8.406;2023-04-03T10:31:09;2.47;;;2.13;;
4389;SDS011;2209;48.982;8.406;2023-04-03T10:33:39;6.10;;;2.07;;
4389;SDS011;2209;48.982;8.406;2023-04-03T10:36:11;3.10;;;2.00;;
4389;SDS011;2209;48.982;8.406;2023-04-03T10:38:41;3.50;;;2.00;;
4389;SDS011;2209;48.982;8.406;2023-04-03T10:41:12;2.13;;;1.90;;
4389;SDS011;2209;48.982;8.406;2023-04-03T10:43:40;1.73;;;1.40;;
4389;SDS011;2209;48.982;8.406;2023-04-03T10:46:06;3.00;;;1.77;;
4389;SDS011;2209;48.982;8.406;2023-04-03T10:48:40;3.00;;;1.80;;
4389;SDS011;2209;48.982;8.406;2023-04-03T10:51:13;3.00;;;2.70;;
4389;SDS011;2209;48.982;8.406;2023-04-03T10:53:44;5.90;;;2.27;;
4389;SDS011;2209;48.982;8.406;2023-04-03T10:56:15;1.70;;;1.60;;
4389;SDS011;2209;48.982;8.406;2023-04-03T10:58:43;3.30;;;1.63;;
4389;SDS011;2209;48.982;8.406;2023-04-03T11:01:08;2.30;;;1.83;;
4389;SDS011;2209;48.982;8.406;2023-04-03T11:03:36;3.40;;;2.70;;
4389;SDS011;2209;48.982;8.406;2023-04-03T11:06:02;2.70;;;2.30;;
4389;SDS011;2209;48.982;8.406;2023-04-03T11:08:30;3.40;;;1.90;;
4389;SDS011;2209;48.982;8.406;2023-04-03T11:10:59;2.03;;;1.33;;
4389;SDS011;2209;48.982;8.406;2023-04-03T11:13:26;2.63;;;2.40;;
4389;SDS011;2209;48.982;8.406;2023-04-03T11:15:54;3.67;;;2.50;;
4389;SDS011;2209;48.982;8.406;2023-04-03T11:18:19;6.57;;;2.80;;
4389;SDS011;2209;48.982;8.406;2023-04-03T11:20:44;2.33;;;2.10;;
4389;SDS011;2209;48.982;8.406;2023-04-03T11:23:13;4.40;;;2.00;;
4389;SDS011;2209;48.982;8.406;2023-04-03T11:25:40;8.07;;;2.43;;
4389;SDS011;2209;48.982;8.406;2023-04-03T11:28:05;2.27;;;1.93;;
4389;SDS011;2209;48.982;8.406;2023-04-03T11:30:42;2.90;;;2.10;;
4389;SDS011;2209;48.982;8.406;2023-04-03T11:33:15;2.90;;;1.70;;
4389;SDS011;2209;48.982;8.406;2023-04-03T11:35:47;4.10;;;2.30;;
4389;SDS011;2209;48.982;8.406;2023-04-03T11:38:15;3.83;;;2.23;;
4389;SDS011;2209;48.982;8.406;2023-04-03T11:40:42;2.40;;;2.00;;
4389;SDS011;2209;48.982;8.406;2023-04-03T11:43:07;3.27;;;1.73;;
4389;SDS011;2209;48.982;8.406;2023-04-03T11:45:50;1.90;;;1.40;;
4389;SDS011;2209;48.982;8.406;2023-04-03T12:15:24;2.30;;;2.03;;
4389;SDS011;2209;48.982;8.406;2023-04-03T12:21:13;2.40;;;1.80;;
4389;SDS011;2209;48.982;8.406;2023-04-03T12:26:21;1.97;;;1.70;;
4389;SDS011;2209;48.982;8.406;2023-04-03T12:28:47;1.93;;;1.83;;
4389;SDS011;2209;48.982;8.406;2023-04-03T12:31:11;3.30;;;2.03;;
4389;SDS011;2209;48.982;8.406;2023-04-03T12:33:36;1.80;;;1.53;;
4389;SDS011;2209;48.982;8.406;2023-04-03T12:36:10;2.90;;;2.30;;
4389;SDS011;2209;48.982;8.406;2023-04-03T12:41:29;2.33;;;2.13;;
4389;SDS011;2209;48.982;8.406;2023-04-03T12:44:12;2.03;;;1.93;;
4389;SDS011;2209;48.982;8.406;2023-04-03T12:46:45;6.00;;;1.93;;
4389;SDS011;2209;48.982;8.406;2023-04-03T12:49:23;3.17;;;1.67;;
4389;SDS011;2209;48.982;8.406;2023-04-03T12:51:55;5.70;;;1.90;;
4389;SDS011;2209;48.982;8.406;2023-04-03T12:54:19;6.33;;;2.23;;
4389;SDS011;2209;48.982;8.406;2023-04-03T12:56:44;4.33;;;2.43;;
4389;SDS011;2209;48.982;8.406;2023-04-03T12:59:15;3.40;;;2.87;;
4389;SDS011;2209;48.982;8.406;2023-04-03T13:01:38;2.30;;;1.97;;
4389;SDS011;2209;48.982;8.406;2023-04-03T13:04:00;2.20;;;1.87;;
4389;SDS011;2209;48.982;8.406;2023-04-03T13:06:23;3.57;;;2.03;;
4389;SDS011;2209;48.982;8.406;2023-04-03T13:08:51;2.53;;;1.60;;
4389;SDS011;2209;48.982;8.406;2023-04-03T13:11:14;4.03;;;2.23;;
4389;SDS011;2209;48.982;8.406;2023-04-03T13:13:36;2.30;;;1.80;;
4389;SDS011;2209;48.982;8.406;2023-04-03T13:16:01;2.30;;;1.80;;
4389;SDS011;2209;48.982;8.406;2023-04-03T13:18:31;3.40;;;1.70;;
4389;SDS011;2209;48.982;8.406;2023-04-03T13:20:56;2.37;;;2.13;;
4389;SDS011;2209;48.982;8.406;2023-04-03T13:23:21;1.80;;;1.70;;
4389;SDS011;2209;48.982;8.406;2023-04-03T13:25:43;4.03;;;2.30;;
4389;SDS011;2209;48.982;8.406;2023-04-03T13:28:09;4.70;;;1.90;;
4389;SDS011;2209;48.982;8.406;2023-04-03T13:30:35;5.63;;;2.20;;
4389;SDS011;2209;48.982;8.406;2023-04-03T13:33:00;3.10;;;2.23;;
4389;SDS011;2209;48.982;8.406;2023-04-03T13:35:29;4.77;;;1.97;;
4389;SDS011;2209;48.982;8.406;2023-04-03T13:37:56;4.33;;;2.47;;
4389;SDS011;2209;48.982;8.406;2023-04-03T13:40:20;2.40;;;2.20;;
4389;SDS011;2209;48.982;8.406;2023-04-03T13:42:42;2.50;;;2.30;;
4389;SDS011;2209;48.982;8.406;2023-04-03T13:45:09;3.40;;;2.00;;
4389;SDS011;2209;48.982;8.406;2023-04-03T13:47:38;3.67;;;2.00;;
4389;SDS011;2209;48.982;8.406;2023-04-03T13:50:03;2.73;;;1.80;;
4389;SDS011;2209;48.982;8.406;2023-04-03T13:52:39;3.20;;;1.80;;
4389;SDS011;2209;48.982;8.406;2023-04-03T13:55:11;3.67;;;2.60;;
4389;SDS011;2209;48.982;8.406;2023-04-03T13:57:48;2.70;;;2.27;;
4389;SDS011;2209;48.982;8.406;2023-04-03T14:02:54;2.40;;;1.70;;
4389;SDS011;2209;48.982;8.406;2023-04-03T14:05:19;2.60;;;1.90;;
4389;SDS011;2209;48.982;8.406;2023-04-03T14:07:41;2.73;;;2.13;;
4389;SDS011;2209;48.982;8.406;2023-04-03T14:10:04;2.07;;;1.93;;
4389;SDS011;2209;48.982;8.406;2023-04-03T14:12:28;2.60;;;1.90;;
4389;SDS011;2209;48.982;8.406;2023-04-03T14:14:54;1.93;;;1.70;;
4389;SDS011;2209;48.982;8.406;2023-04-03T14:17:17;2.13;;;2.00;;
4389;SDS011;2209;48.982;8.406;2023-04-03T14:19:42;4.80;;;2.30;;
4389;SDS011;2209;48.982;8.406;2023-04-03T14:22:15;4.57;;;2.00;;
4389;SDS011;2209;48.982;8.406;2023-04-03T14:24:38;1.80;;;1.67;;
4389;SDS011;2209;48.982;8.406;2023-04-03T14:27:00;4.20;;;2.40;;
4389;SDS011;2209;48.982;8.406;2023-04-03T14:29:24;1.90;;;1.80;;
4389;SDS011;2209;48.982;8.406;2023-04-03T14:31:47;1.70;;;1.60;;
4389;SDS011;2209;48.982;8.406;2023-04-03T14:34:11;2.47;;;1.97;;
4389;SDS011;2209;48.982;8.406;2023-04-03T14:36:34;2.37;;;2.17;;
4389;SDS011;2209;48.982;8.406;2023-04-03T14:38:58;2.40;;;2.20;;
4389;SDS011;2209;48.982;8.406;2023-04-03T14:41:22;2.33;;;1.70;;
4389;SDS011;2209;48.982;8.406;2023-04-03T14:43:46;2.37;;;1.53;;
4389;SDS011;2209;48.982;8.406;2023-04-03T14:46:11;2.77;;;2.40;;
4389;SDS011;2209;48.982;8.406;2023-04-03T14:48:34;2.33;;;2.03;;
4389;SDS011;2209;48.982;8.406;2023-04-03T14:50:57;2.77;;;2.20;;
4389;SDS011;2209;48.982;8.406;2023-04-03T14:53:19;4.50;;;2.13;;
4389;SDS011;2209;48.982;8.406;2023-04-03T14:55:44;1.93;;;1.83;;
4389;SDS011;2209;48.982;8.406;2023-04-03T14:58:08;4.83;;;2.00;;
4389;SDS011;2209;48.982;8.406;2023-04-03T15:00:33;2.97;;;1.90;;
4389;SDS011;2209;48.982;8.406;2023-04-03T15:02:55;2.40;;;2.07;;
4389;SDS011;2209;48.982;8.406;2023-04-03T15:05:17;2.27;;;2.07;;
4389;SDS011;2209;48.982;8.406;2023-04-03T15:07:40;3.70;;;3.00;;
4389;SDS011;2209;48.982;8.406;2023-04-03T15:10:09;6.20;;;2.20;;
4389;SDS011;2209;48.982;8.406;2023-04-03T15:12:38;4.10;;;2.30;;
4389;SDS011;2209;48.982;8.406;2023-04-03T15:15:00;2.70;;;2.37;;
4389;SDS011;2209;48.982;8.406;2023-04-03T15:17:22;4.63;;;2.10;;
4389;SDS011;2209;48.982;8.406;2023-04-03T15:19:45;5.13;;;2.77;;
4389;SDS011;2209;48.982;8.406;2023-04-03T15:22:08;6.10;;;2.30;;
4389;SDS011;2209;48.982;8.406;2023-04-03T15:24:34;3.17;;;2.87;;
4389;SDS011;2209;48.982;8.406;2023-04-03T15:26:56;4.20;;;2.40;;
4389;SDS011;2209;48.982;8.406;2023-04-03T15:29:19;4.73;;;2.07;;
4389;SDS011;2209;48.982;8.406;2023-04-03T15:31:41;4.00;;;2.40;;
4389;SDS011;2209;48.982;8.406;2023-04-03T15:34:03;2.73;;;2.07;;
4389;SDS011;2209;48.982;8.406;2023-04-03T15:36:26;5.00;;;2.40;;